Startpagina
METAR-TAF:

METAR-TAF

Vliegvelden :

Rarotonga, Cookeilanden

breedte: 21-12S, lengte: 159-49W, hoogte: 7 m

Actueel weer

Dit bericht is 26 minuten geleden gemaakt, om 08:00 UTC
Wind 6 kt uit het zuidoosten
Temperatuur 22°C
Vochtigheid 60%
Druk 1017 hPa
Zicht 10 km of meer
Weinig wolken op 2500 ft
Gebroken wolken op 4500 ft

METAR: NCRG 200800Z 13006KT 9999 FEW025 BKN045 22/14 Q1017

Tijdstip: 22:26 (08:26 UTC)

Verwachting

Dit bericht is 3 uur en het 7 minuten geleden gemaakt, om 05:19 UTC
Verwachting geldig van 20 om 06 UTC tot 21 om 06 UTC
Wind 10 kt uit het oostzuidoosten
Zicht 10 km of meer
Verspreide wolken op 1800 ft
Verspreide wolken op 4000 ft
Gebroken wolken op 10000 ft
Kans 30% :
Tijdelijke
van 20 om 18 UTC tot 21 om 06 UTC
Wind 15 kt uit het oostzuidoosten met uitschieters tot 25 kt
Zicht: 5000 m
Gebroken wolken op 1500 ft
regenbuien

TAF: NCRG 200519Z 2006/2106 11010KT 9999 SCT018 SCT040 BKN100 PROB30 TEMPO 2018/2106 11015G25KT 5000 SHRA BKN015

Waarnemingen en weersverwachtingen van meer dan 4000 vliegvelden (METAR en TAF).

De beschikbare stations zijn de gele en rode punten op de kaart.

Ga met uw muis naar het station om de naam te zien.

Klik dan om waarnemingen en weersverwachtingen te zien.

kaart wijzigen: klik op de groene knoppen met een zwart kruis om in te zoomen, op de groene knop met een streepje om uit te zoomen of op de groene pijlen voor aangrenzende kaarten.


METAR-TAF: